Weather at Makin Island Airport

Public forecast

Using degrees Celsius for public forecast. Weather courtesy of forecast.io.

Closest aviation weather report (METAR) to Makin Island Airport

Closest report is Bonriki International Airport, 120.0 nm (222.3 km) S.

2024/05/26 12:00 (retrieved 44 minutes ago)

NGTA 261200Z 08007KT 040V110 9999 FEW020 29/25 Q1009

Closest aviation forecast (TAF) to Makin Island Airport

Closest forecast is Bonriki International Airport, 120.0 nm (222.3 km) S.

2024/05/26 12:00 (retrieved 44 minutes ago)

TAF NGTA 261115Z 2612/2712 08008KT 9999 SCT020